Time;durP1;ratioP1;P1;durP2;ratioP2;P2;SDS_P1;SDS_P2;PMS_P1;PMS_P2;Temp;Humidity;BMP_temperature;BMP_pressure;BME280_temperature;BME280_humidity;BME280_pressure;Samples;Min_cycle;Max_cycle;Signal;HPM_P1;HPM_P2
2023/04/26 00:01:57;;;;;;;4.38;2.30;;;5.50;94.70;;;;;;4938145;29;20192;-73
2023/04/26 00:04:23;;;;;;;4.47;2.40;;;5.50;95.00;;;;;;4937666;29;20186;-75
2023/04/26 00:07:42;;;;;;;3.73;2.40;;;5.50;95.10;;;;;;4941318;29;20347;-75
2023/04/26 00:10:09;;;;;;;4.03;2.40;;;5.50;95.50;;;;;;4958361;29;20186;-75
2023/04/26 00:12:35;;;;;;;3.80;2.37;;;5.50;95.90;;;;;;4942812;29;20185;-75
2023/04/26 00:15:02;;;;;;;5.47;2.53;;;5.50;95.90;;;;;;4942193;29;20182;-75
2023/04/26 00:17:28;;;;;;;6.73;2.50;;;5.60;96.20;;;;;;4941915;29;20197;-75
2023/04/26 00:19:56;;;;;;;5.10;2.67;;;5.60;95.60;;;;;;4941342;29;20228;-75
2023/04/26 00:22:22;;;;;;;8.20;2.40;;;5.70;95.40;;;;;;4941609;29;20270;-75
2023/04/26 00:24:47;;;;;;;4.15;2.30;;;5.70;94.40;;;;;;4941067;29;20277;-75
2023/04/26 00:27:13;;;;;;;5.07;2.38;;;5.70;94.60;;;;;;4940625;29;20205;-74
2023/04/26 00:29:38;;;;;;;4.97;2.47;;;5.70;94.30;;;;;;4937940;29;20182;-73
2023/04/26 00:32:37;;;;;;;7.40;2.55;;;5.70;94.50;;;;;;4955701;29;20201;-73
2023/04/26 00:35:03;;;;;;;8.40;2.22;;;5.70;94.70;;;;;;4938752;29;20208;-73
2023/04/26 00:37:29;;;;;;;4.00;2.40;;;5.70;95.10;;;;;;4953697;29;20208;-73
2023/04/26 00:39:56;;;;;;;5.07;2.53;;;5.60;95.50;;;;;;4955177;29;20173;-73
2023/04/26 00:42:21;;;;;;;7.80;2.63;;;5.60;95.90;;;;;;4937721;29;20178;-73
2023/04/26 00:44:49;;;;;;;6.20;2.40;;;5.50;96.10;;;;;;4937715;29;20181;-73
2023/04/26 00:47:14;;;;;;;4.70;2.20;;;5.40;96.60;;;;;;4937727;29;20194;-73
2023/04/26 00:49:40;;;;;;;5.43;2.47;;;5.40;96.60;;;;;;4938742;29;20185;-73
2023/04/26 00:52:06;;;;;;;3.65;2.35;;;5.30;96.80;;;;;;4938311;29;20217;-73
2023/04/26 00:54:32;;;;;;;6.00;2.50;;;5.20;97.10;;;;;;4937647;29;20178;-73
2023/04/26 00:56:58;;;;;;;5.03;2.17;;;5.20;97.50;;;;;;4954790;29;20284;-73
2023/04/26 00:59:25;;;;;;;5.03;2.50;;;5.10;97.00;;;;;;4954948;29;20182;-73
2023/04/26 02:49:51;;;;;;;3.77;2.40;;;2.70;99.90;;;;;;4956518;29;20708;-74
2023/04/26 04:11:02;;;;;;;10.47;6.07;;;1.60;99.90;;;;;;4937878;29;20271;-95
2023/04/26 04:13:28;;;;;;;8.20;5.30;;;1.70;99.90;;;;;;4937853;29;20167;-94
2023/04/26 04:15:53;;;;;;;6.27;4.37;;;1.80;99.90;;;;;;4938538;29;20206;-94
2023/04/26 04:18:19;;;;;;;13.67;5.23;;;1.90;99.90;;;;;;4939267;29;20230;-94
2023/04/26 04:20:45;;;;;;;7.90;5.03;;;1.80;99.90;;;;;;4938592;29;20183;-94
2023/04/26 04:23:20;;;;;;;10.17;5.97;;;1.80;99.90;;;;;;4938661;29;20167;-94
2023/04/26 04:25:50;;;;;;;11.57;5.03;;;1.80;99.90;;;;;;4938797;29;20195;-94
2023/04/26 04:28:16;;;;;;;9.57;5.43;;;1.80;99.90;;;;;;4937045;29;20268;-94
2023/04/26 04:30:43;;;;;;;9.63;5.73;;;1.60;99.90;;;;;;4938823;29;20219;-94
2023/04/26 04:33:09;;;;;;;13.93;5.67;;;1.60;99.90;;;;;;4938907;29;20167;-94
2023/04/26 04:35:34;;;;;;;9.53;3.80;;;1.70;99.90;;;;;;4938754;29;20231;-94
2023/04/26 04:38:01;;;;;;;7.53;3.50;;;1.50;99.90;;;;;;4938074;29;20187;-94
2023/04/26 04:40:27;;;;;;;15.67;3.90;;;1.60;99.90;;;;;;4939840;29;20179;-94
2023/04/26 04:42:54;;;;;;;29.03;4.73;;;1.70;99.90;;;;;;4938459;29;20238;-94
2023/04/26 04:45:23;;;;;;;21.00;4.33;;;1.80;99.90;;;;;;4939070;29;20163;-95
2023/04/26 04:47:49;;;;;;;11.33;3.73;;;1.80;99.90;;;;;;4936483;29;20278;-94
2023/04/26 04:50:15;;;;;;;15.80;3.60;;;2.00;99.90;;;;;;4939271;29;20163;-94
2023/04/26 04:52:41;;;;;;;21.03;4.17;;;2.00;99.90;;;;;;4941507;29;20191;-94
2023/04/26 04:55:07;;;;;;;9.33;4.70;;;2.00;99.90;;;;;;4940715;29;20175;-94
2023/04/26 04:57:33;;;;;;;7.30;4.17;;;2.10;99.90;;;;;;4941229;29;20222;-94
2023/04/26 05:00:05;;;;;;;10.83;4.70;;;2.10;99.90;;;;;;4941581;29;20187;-94
2023/04/26 05:02:31;;;;;;;25.73;5.23;;;2.00;99.90;;;;;;4941910;29;20171;-94
2023/04/26 05:05:00;;;;;;;10.73;4.33;;;1.90;99.90;;;;;;4940317;29;20167;-93
2023/04/26 05:07:25;;;;;;;5.77;4.30;;;1.90;99.90;;;;;;4941422;29;20242;-94
2023/04/26 05:09:51;;;;;;;11.40;5.23;;;1.80;99.90;;;;;;4939063;29;20203;-94
2023/04/26 05:12:17;;;;;;;9.60;4.53;;;1.80;99.90;;;;;;4937126;29;20231;-94
2023/04/26 05:45:04;;;;;;;15.93;4.73;;;4.20;99.90;;;;;;5129409;23;20240;-72
2023/04/26 06:01:19;;;;;;;15.13;5.07;;;4.80;99.90;;;;;;4805895;29;20198;-74
2023/04/26 06:04:19;;;;;;;10.47;4.67;;;5.00;99.90;;;;;;4813505;29;20197;-74
2023/04/26 06:07:36;;;;;;;7.77;4.57;;;5.00;99.20;;;;;;4841817;29;20292;-74
2023/04/26 06:10:54;;;;;;;9.13;5.53;;;5.00;98.90;;;;;;4853817;29;20199;-72
2023/04/26 06:14:02;;;;;;;9.50;6.13;;;4.90;98.90;;;;;;4847510;29;20286;-72
2023/04/26 06:17:34;;;;;;;10.23;4.13;;;5.10;99.10;;;;;;4874561;29;20203;-72
2023/04/26 06:20:47;;;;;;;13.13;5.47;;;5.30;98.90;;;;;;4841309;29;20193;-72
2023/04/26 07:02:06;;;;;;;;;;;;;;;;;;;;;
2023/04/26 07:15:42;;;;;;;8.90;3.78;;;7.30;94.80;;;;;;4943929;29;20185;-72
2023/04/26 07:22:16;;;;;;;5.55;3.70;;;7.80;94.60;;;;;;4915184;29;20278;-72
2023/04/26 07:25:50;;;;;;;;;;;;;;;;;;;;;
2023/04/26 07:32:41;;;;;;;8.02;3.45;;;8.10;92.80;;;;;;4885898;29;20305;-72
2023/04/26 07:35:48;;;;;;;;;;;;;;;;;;;;;
2023/04/26 07:59:57;;;;;;;8.35;3.00;;;9.00;89.20;;;;;;4823015;29;20205;-73
2023/04/26 08:41:25;;;;;;;9.18;2.75;;;9.90;79.00;;;;;;4942006;29;20189;-74
2023/04/26 08:43:51;;;;;;;5.68;2.53;;;10.00;76.40;;;;;;4927594;29;20229;-74
2023/04/26 08:46:18;;;;;;;3.55;2.05;;;10.00;77.60;;;;;;4944601;29;20213;-74
2023/04/26 08:48:48;;;;;;;4.68;2.05;;;10.10;76.00;;;;;;4943849;29;20186;-74
2023/04/26 08:51:15;;;;;;;5.70;2.08;;;10.50;74.30;;;;;;4942463;29;20291;-73
2023/04/26 08:53:41;;;;;;;6.32;2.40;;;10.50;72.40;;;;;;4939445;29;20193;-73
2023/04/26 08:56:09;;;;;;;5.05;2.20;;;10.60;73.00;;;;;;4938137;29;20690;-75
2023/04/26 08:58:36;;;;;;;5.57;1.83;;;10.40;70.10;;;;;;4923369;29;20178;-73
2023/04/26 09:01:02;;;;;;;5.82;2.50;;;10.60;70.40;;;;;;4922331;29;20315;-74
2023/04/26 09:03:28;;;;;;;13.70;2.00;;;10.70;71.10;;;;;;4922319;29;20655;-75
2023/04/26 09:05:54;;;;;;;3.15;1.58;;;10.50;71.40;;;;;;4922180;29;20269;-73
2023/04/26 09:08:20;;;;;;;4.95;1.80;;;10.50;71.60;;;;;;4938009;29;20186;-73
2023/04/26 09:10:46;;;;;;;6.50;2.10;;;10.50;68.80;;;;;;4922863;29;20710;-73
2023/04/26 09:13:13;;;;;;;4.07;2.08;;;10.50;69.30;;;;;;4923077;29;20182;-73
2023/04/26 09:15:38;;;;;;;6.30;2.03;;;10.60;70.70;;;;;;4922409;29;20186;-74
2023/04/26 09:18:21;;;;;;;3.60;1.70;;;10.50;70.00;;;;;;4925120;29;20189;-74
2023/04/26 09:21:06;;;;;;;2.83;1.60;;;10.20;69.50;;;;;;4940865;29;20166;-73
2023/04/26 09:23:32;;;;;;;8.45;2.10;;;10.20;69.40;;;;;;4939157;29;20181;-73
2023/04/26 09:26:20;;;;;;;5.53;1.85;;;10.10;70.70;;;;;;4922519;29;20202;-74
2023/04/26 09:28:46;;;;;;;4.75;1.90;;;10.20;70.90;;;;;;4921704;29;20186;-74
2023/04/26 09:31:38;;;;;;;7.20;1.90;;;10.30;70.20;;;;;;4939786;29;20209;-74
2023/04/26 09:34:04;;;;;;;9.27;3.80;;;10.10;69.20;;;;;;4924063;29;20178;-73
2023/04/26 09:36:30;;;;;;;15.70;6.97;;;10.00;71.40;;;;;;4921544;29;20210;-74
2023/04/26 09:38:56;;;;;;;10.60;4.43;;;10.40;69.30;;;;;;4925302;29;20182;-74
2023/04/26 09:41:21;;;;;;;11.57;4.55;;;10.60;65.50;;;;;;4939215;29;20558;-74
2023/04/26 09:43:52;;;;;;;35.53;18.35;;;11.00;65.20;;;;;;4921773;29;20209;-74
2023/04/26 09:46:23;;;;;;;28.63;14.57;;;11.30;63.70;;;;;;4938667;29;20209;-73
2023/04/26 09:49:01;;;;;;;16.85;9.38;;;11.70;65.70;;;;;;4921706;29;20182;-73
2023/04/26 09:51:27;;;;;;;43.80;26.58;;;11.70;62.00;;;;;;4938669;29;20205;-73
2023/04/26 09:53:53;;;;;;;6.57;3.72;;;11.80;59.60;;;;;;4921239;29;20190;-73
2023/04/26 09:56:19;;;;;;;9.52;6.13;;;11.70;60.30;;;;;;4923615;29;20203;-74
2023/04/26 09:58:57;;;;;;;6.63;3.47;;;11.80;61.30;;;;;;4924954;29;20175;-75
2023/04/26 10:01:24;;;;;;;12.60;4.65;;;11.40;64.00;;;;;;4921173;29;20218;-73
2023/04/26 10:03:50;;;;;;;4.30;2.47;;;11.20;63.00;;;;;;4938158;29;20209;-73
2023/04/26 10:06:16;;;;;;;7.30;3.42;;;11.10;62.90;;;;;;4938145;29;20198;-73
2023/04/26 10:08:42;;;;;;;9.00;2.60;;;10.90;62.50;;;;;;4921044;29;20190;-73
2023/04/26 10:11:11;;;;;;;5.90;2.15;;;10.90;60.30;;;;;;4920650;29;20305;-72
2023/04/26 10:13:38;;;;;;;14.80;7.35;;;10.90;59.50;;;;;;4936906;29;20186;-74
2023/04/26 10:16:05;;;;;;;9.10;2.40;;;10.70;60.00;;;;;;4937289;29;20625;-75
2023/04/26 10:18:31;;;;;;;21.67;5.90;;;10.90;62.30;;;;;;4941208;29;20655;-75
2023/04/26 10:21:15;;;;;;;7.35;4.03;;;11.40;61.70;;;;;;4937541;29;20690;-75
2023/04/26 10:23:41;;;;;;;24.88;4.75;;;11.80;59.90;;;;;;4941321;29;20174;-74
2023/04/26 10:26:46;;;;;;;25.00;12.07;;;11.80;57.60;;;;;;4942812;29;20202;-74
2023/04/26 10:29:11;;;;;;;7.95;4.97;;;11.90;58.80;;;;;;4942172;29;20225;-75
2023/04/26 10:32:05;;;;;;;17.95;7.15;;;12.20;57.20;;;;;;4937761;29;20233;-75
2023/04/26 10:34:33;;;;;;;4.40;2.42;;;12.40;58.40;;;;;;4940807;29;20202;-76
2023/04/26 10:37:13;;;;;;;9.68;5.13;;;12.60;57.20;;;;;;4941305;29;20198;-74
2023/04/26 10:39:41;;;;;;;5.38;1.98;;;12.40;57.80;;;;;;4942317;29;20187;-73
2023/04/26 10:42:22;;;;;;;7.82;2.50;;;12.10;56.60;;;;;;4936249;29;20757;-73
2023/04/26 10:44:49;;;;;;;7.45;2.53;;;12.00;58.90;;;;;;4936081;29;20227;-73
2023/04/26 10:47:32;;;;;;;7.78;3.45;;;11.80;58.10;;;;;;4937360;29;20213;-73
2023/04/26 10:50:03;;;;;;;10.02;5.90;;;11.80;60.80;;;;;;4936131;29;20590;-73
2023/04/26 10:52:29;;;;;;;6.90;2.70;;;11.70;61.10;;;;;;4937571;29;20264;-74
2023/04/26 10:54:56;;;;;;;21.23;8.55;;;11.80;62.00;;;;;;4940173;29;20190;-73
2023/04/26 10:57:42;;;;;;;7.25;4.00;;;11.90;57.60;;;;;;4940218;29;20259;-74
2023/04/26 11:00:13;;;;;;;6.97;3.08;;;12.10;56.40;;;;;;4936428;29;20248;-76
2023/04/26 11:02:51;;;;;;;13.27;6.75;;;12.50;57.80;;;;;;4937128;29;20167;-73
2023/04/26 11:05:32;;;;;;;6.47;3.63;;;12.90;56.60;;;;;;4935837;29;20359;-73
2023/04/26 11:08:24;;;;;;;16.88;9.77;;;13.20;55.00;;;;;;4936098;29;20198;-73
2023/04/26 11:11:03;;;;;;;4.63;2.67;;;13.10;53.30;;;;;;4936964;29;20316;-73
2023/04/26 11:13:35;;;;;;;12.25;5.70;;;13.00;54.30;;;;;;4936905;29;20190;-73
2023/04/26 11:16:11;;;;;;;23.65;7.90;;;12.80;53.70;;;;;;4935608;29;20205;-73
2023/04/26 11:18:39;;;;;;;6.57;3.15;;;12.60;55.70;;;;;;4936811;29;20169;-73
2023/04/26 11:21:05;;;;;;;17.45;11.48;;;12.40;55.90;;;;;;4935679;29;20184;-73
2023/04/26 11:23:32;;;;;;;27.02;13.75;;;12.40;55.80;;;;;;4951548;29;20179;-73
2023/04/26 11:26:04;;;;;;;9.40;4.07;;;12.50;56.30;;;;;;4951765;28;20214;-74
2023/04/26 11:28:31;;;;;;;38.13;18.30;;;12.30;54.90;;;;;;4935807;29;20178;-73
2023/04/26 11:30:57;;;;;;;36.83;19.30;;;12.30;57.40;;;;;;4952110;29;20305;-74
2023/04/26 11:33:23;;;;;;;13.80;6.28;;;12.50;56.40;;;;;;4937075;29;20228;-75
2023/04/26 11:35:50;;;;;;;28.17;14.80;;;12.60;54.10;;;;;;4935971;29;20289;-75
2023/04/26 11:38:16;;;;;;;49.65;22.73;;;12.30;54.80;;;;;;4937629;29;20178;-75
2023/04/26 11:41:01;;;;;;;27.35;13.27;;;12.20;55.50;;;;;;4952921;29;20205;-74
2023/04/26 11:43:37;;;;;;;117.10;56.55;;;12.40;56.60;;;;;;4951596;29;20197;-74
2023/04/26 11:46:12;;;;;;;127.57;49.38;;;12.60;56.70;;;;;;4936143;29;20209;-74
2023/04/26 11:48:47;;;;;;;68.60;29.15;;;12.70;55.70;;;;;;4952893;29;20181;-75
2023/04/26 11:51:12;;;;;;;9.90;5.82;;;12.60;56.20;;;;;;4953252;29;20255;-75
2023/04/26 11:53:42;;;;;;;15.95;8.35;;;12.70;56.20;;;;;;4936851;29;20242;-75
2023/04/26 11:56:18;;;;;;;3.92;2.80;;;12.80;57.30;;;;;;4938463;29;20206;-75
2023/04/26 11:58:46;;;;;;;4.93;4.43;;;13.00;55.70;;;;;;4937067;29;20173;-75
2023/04/26 12:01:28;;;;;;;4.90;2.38;;;13.20;54.20;;;;;;4934729;29;20679;-75
2023/04/26 12:03:58;;;;;;;4.18;2.10;;;13.00;55.00;;;;;;4935101;29;20174;-74
2023/04/26 12:06:31;;;;;;;15.65;3.13;;;12.90;54.70;;;;;;4934920;29;20194;-74
2023/04/26 12:08:57;;;;;;;4.90;2.33;;;12.90;56.60;;;;;;4935759;29;20217;-74
2023/04/26 12:12:07;;;;;;;5.78;2.30;;;12.90;54.70;;;;;;4935994;29;20730;-74
2023/04/26 12:14:32;;;;;;;96.47;9.20;;;13.00;54.90;;;;;;4935371;29;20185;-74
2023/04/26 12:17:00;;;;;;;25.38;12.32;;;13.30;56.80;;;;;;4935261;29;20565;-74
2023/04/26 12:19:26;;;;;;;76.95;45.33;;;13.50;54.20;;;;;;4935741;29;20234;-73
2023/04/26 12:21:53;;;;;;;18.00;10.05;;;13.50;52.20;;;;;;4951734;29;20198;-74
2023/04/26 12:24:33;;;;;;;5.55;3.90;;;13.50;54.40;;;;;;4934732;29;20566;-73
2023/04/26 12:26:59;;;;;;;6.40;4.20;;;13.60;52.90;;;;;;4934843;29;20221;-74
2023/04/26 12:29:25;;;;;;;7.00;4.28;;;13.70;51.70;;;;;;4934757;29;20233;-74
2023/04/26 12:31:50;;;;;;;6.85;5.25;;;13.50;53.00;;;;;;4934784;29;20257;-74
2023/04/26 12:34:16;;;;;;;6.63;3.97;;;13.20;54.80;;;;;;4936196;29;20186;-73
2023/04/26 12:36:45;;;;;;;4.75;2.72;;;13.10;55.60;;;;;;4935815;29;20209;-73
2023/04/26 12:39:13;;;;;;;4.93;3.10;;;12.90;54.90;;;;;;4934618;29;20321;-74
2023/04/26 12:41:40;;;;;;;5.43;2.65;;;12.80;55.50;;;;;;4935386;29;20210;-74
2023/04/26 12:44:07;;;;;;;6.78;2.78;;;12.80;55.60;;;;;;4928195;29;20206;-75
2023/04/26 12:46:33;;;;;;;11.35;6.55;;;12.80;54.70;;;;;;4918316;29;20276;-75
2023/04/26 12:48:58;;;;;;;9.73;5.15;;;13.10;55.50;;;;;;4900951;29;20640;-74
2023/04/26 12:51:24;;;;;;;6.03;3.80;;;13.60;55.80;;;;;;4899808;29;20215;-73
2023/04/26 12:53:50;;;;;;;6.00;3.50;;;14.00;54.40;;;;;;4902495;29;20179;-75
2023/04/26 12:56:16;;;;;;;6.75;2.38;;;14.40;53.40;;;;;;4919332;29;20209;-75
2023/04/26 12:58:42;;;;;;;6.70;3.92;;;14.60;52.70;;;;;;4919796;29;20198;-74
2023/04/26 13:01:08;;;;;;;13.88;5.75;;;14.50;53.80;;;;;;4901389;29;20190;-74
2023/04/26 13:03:33;;;;;;;15.65;5.38;;;14.60;52.60;;;;;;4903139;29;20211;-74
2023/04/26 13:05:59;;;;;;;7.72;3.10;;;14.60;53.00;;;;;;4902378;29;20199;-75
2023/04/26 13:08:24;;;;;;;11.68;5.60;;;14.60;50.60;;;;;;4918182;29;20187;-76
2023/04/26 13:10:50;;;;;;;12.07;7.50;;;14.60;53.30;;;;;;4919846;29;20684;-74
2023/04/26 13:13:16;;;;;;;8.63;7.35;;;14.30;52.10;;;;;;4903222;29;20175;-73
2023/04/26 13:15:41;;;;;;;21.00;5.55;;;14.10;53.80;;;;;;4903028;29;20322;-73
2023/04/26 13:18:07;;;;;;;6.80;2.80;;;13.70;53.60;;;;;;4903055;29;20214;-73
2023/04/26 13:20:32;;;;;;;6.22;2.60;;;13.80;54.70;;;;;;4920082;29;20568;-73
2023/04/26 13:23:10;;;;;;;22.88;3.80;;;14.00;53.20;;;;;;4902943;29;20603;-73
2023/04/26 13:25:36;;;;;;;12.75;2.78;;;14.00;51.80;;;;;;4902843;29;20182;-74
2023/04/26 13:28:04;;;;;;;10.48;2.70;;;14.40;52.50;;;;;;4915790;29;20290;-74
2023/04/26 13:30:30;;;;;;;4.32;2.03;;;14.40;52.00;;;;;;4940678;29;20200;-74
2023/04/26 13:32:56;;;;;;;8.63;2.22;;;14.20;52.20;;;;;;4941573;29;20174;-73
2023/04/26 13:35:22;;;;;;;7.70;2.13;;;13.90;52.60;;;;;;4957873;29;20166;-73
2023/04/26 13:37:47;;;;;;;8.48;2.35;;;13.60;53.30;;;;;;4940545;29;20297;-73
2023/04/26 13:40:14;;;;;;;3.70;2.13;;;13.30;52.60;;;;;;4941848;29;20169;-74
2023/04/26 13:42:40;;;;;;;10.27;3.10;;;13.20;54.70;;;;;;4957782;29;20234;-73
2023/04/26 13:45:08;;;;;;;3.90;2.33;;;12.80;53.60;;;;;;4941367;29;20253;-73
2023/04/26 13:47:35;;;;;;;5.53;2.00;;;12.90;55.10;;;;;;4958499;28;20208;-74
2023/04/26 13:50:00;;;;;;;10.20;2.30;;;12.90;53.30;;;;;;4940808;29;20182;-74
2023/04/26 13:52:26;;;;;;;11.80;2.80;;;13.10;54.50;;;;;;4941924;29;20209;-74
2023/04/26 13:54:53;;;;;;;5.75;1.92;;;13.20;52.60;;;;;;4958521;29;20170;-74
2023/04/26 13:57:18;;;;;;;5.93;2.08;;;13.20;53.60;;;;;;4958875;28;20682;-75
2023/04/26 13:59:44;;;;;;;6.28;2.47;;;13.10;53.50;;;;;;4940387;29;20192;-74
2023/04/26 14:02:11;;;;;;;10.15;2.35;;;13.40;54.10;;;;;;4940578;29;20174;-76
2023/04/26 14:04:37;;;;;;;4.55;2.28;;;13.60;53.10;;;;;;4957410;29;20714;-74
2023/04/26 14:07:02;;;;;;;4.15;2.25;;;13.70;54.10;;;;;;4940911;29;20288;-74
2023/04/26 14:09:28;;;;;;;4.70;2.50;;;13.60;52.70;;;;;;4957682;29;20557;-73
2023/04/26 14:11:53;;;;;;;6.60;2.90;;;13.60;51.80;;;;;;4957336;29;20280;-73
2023/04/26 14:14:19;;;;;;;8.40;3.88;;;13.80;53.20;;;;;;4957112;29;20174;-73
2023/04/26 14:16:45;;;;;;;10.88;5.43;;;13.90;54.70;;;;;;4939915;29;20193;-74
2023/04/26 14:19:11;;;;;;;5.15;2.70;;;14.10;54.20;;;;;;4957792;29;20229;-75
2023/04/26 14:21:36;;;;;;;25.45;11.30;;;14.00;52.20;;;;;;4958766;29;20196;-75
2023/04/26 14:24:02;;;;;;;13.45;6.68;;;14.10;51.40;;;;;;4956222;28;20173;-76
2023/04/26 14:26:27;;;;;;;9.07;2.92;;;14.10;51.30;;;;;;4941184;29;20209;-76
2023/04/26 14:28:53;;;;;;;9.02;2.70;;;14.20;54.20;;;;;;4942361;29;20177;-74
2023/04/26 14:31:19;;;;;;;5.07;2.17;;;14.30;52.60;;;;;;4958884;29;20208;-74
2023/04/26 14:33:45;;;;;;;10.30;2.10;;;14.20;50.10;;;;;;4939689;29;20189;-74
2023/04/26 14:36:11;;;;;;;3.22;2.08;;;14.00;51.80;;;;;;4939676;29;20283;-74
2023/04/26 14:38:40;;;;;;;9.60;2.60;;;14.00;51.80;;;;;;4940237;29;20556;-75
2023/04/26 14:41:05;;;;;;;4.80;2.30;;;14.10;51.50;;;;;;4939551;29;20185;-74
2023/04/26 14:43:32;;;;;;;3.90;2.25;;;14.30;51.30;;;;;;4939428;29;20177;-73
2023/04/26 14:45:58;;;;;;;4.88;2.30;;;14.10;51.70;;;;;;4939600;29;20210;-74
2023/04/26 14:48:23;;;;;;;5.15;1.95;;;14.40;51.80;;;;;;4939692;29;20196;-74
2023/04/26 14:50:56;;;;;;;4.78;2.00;;;14.40;52.90;;;;;;4956358;29;20209;-74
2023/04/26 14:53:22;;;;;;;3.35;2.10;;;14.50;50.00;;;;;;4939388;29;20178;-75
2023/04/26 14:55:53;;;;;;;4.47;2.10;;;14.50;50.30;;;;;;4940089;28;20193;-75
2023/04/26 14:58:19;;;;;;;7.88;2.00;;;14.70;51.70;;;;;;4948714;29;20243;-76
2023/04/26 15:00:45;;;;;;;5.72;2.20;;;14.70;51.00;;;;;;4924967;29;20205;-76
2023/04/26 15:03:10;;;;;;;5.82;2.13;;;14.90;50.50;;;;;;4937874;29;20197;-75
2023/04/26 15:05:36;;;;;;;3.83;2.08;;;14.70;50.10;;;;;;4920259;29;20182;-75
2023/04/26 15:08:02;;;;;;;4.90;1.98;;;14.70;50.80;;;;;;4919810;29;20189;-75
2023/04/26 15:10:28;;;;;;;2.05;1.80;;;14.40;50.50;;;;;;4920691;29;20191;-75
2023/04/26 15:12:55;;;;;;;5.03;2.05;;;14.20;51.70;;;;;;4919828;29;20213;-77
2023/04/26 15:15:21;;;;;;;9.13;2.20;;;13.70;51.60;;;;;;4936990;29;20170;-74
2023/04/26 15:17:47;;;;;;;3.33;1.73;;;13.50;51.60;;;;;;4919707;29;20195;-75
2023/04/26 15:20:13;;;;;;;5.05;1.90;;;13.40;51.80;;;;;;4920119;29;20178;-74
2023/04/26 15:22:39;;;;;;;5.32;2.03;;;13.30;52.60;;;;;;4919691;29;20265;-75
2023/04/26 15:25:16;;;;;;;7.13;2.20;;;13.30;52.00;;;;;;4933490;29;20236;-74
2023/04/26 15:27:44;;;;;;;14.48;2.60;;;13.00;51.80;;;;;;4937768;29;20204;-77
2023/04/26 15:30:10;;;;;;;3.83;2.38;;;12.80;52.80;;;;;;4923033;29;20242;-77
2023/04/26 15:32:36;;;;;;;9.23;2.22;;;12.50;51.80;;;;;;4936783;29;20219;-75
2023/04/26 15:35:04;;;;;;;4.50;2.05;;;12.50;54.20;;;;;;4918949;29;20171;-74
2023/04/26 15:37:30;;;;;;;9.32;2.33;;;12.40;55.20;;;;;;4920196;29;20239;-76
2023/04/26 15:39:56;;;;;;;6.00;1.80;;;12.40;55.90;;;;;;4920308;29;20185;-76
2023/04/26 15:42:21;;;;;;;3.03;2.00;;;12.30;55.50;;;;;;4921138;29;20190;-75
2023/04/26 15:44:48;;;;;;;6.07;2.00;;;12.20;55.00;;;;;;4921036;29;20256;-75
2023/04/26 15:47:14;;;;;;;5.28;2.00;;;12.20;54.70;;;;;;4920452;29;20213;-75
2023/04/26 15:49:39;;;;;;;3.78;2.10;;;12.40;54.60;;;;;;4920706;29;20197;-74
2023/04/26 15:52:05;;;;;;;7.88;2.40;;;12.50;54.20;;;;;;4920767;29;20210;-75
2023/04/26 15:54:31;;;;;;;3.97;2.00;;;12.40;52.70;;;;;;4937083;29;20188;-75
2023/04/26 15:57:02;;;;;;;5.00;2.38;;;12.40;54.40;;;;;;4937045;29;20197;-74
2023/04/26 15:59:29;;;;;;;4.15;2.15;;;12.30;55.80;;;;;;4921633;29;20189;-77
2023/04/26 16:01:55;;;;;;;4.07;1.92;;;12.30;55.80;;;;;;4921283;29;20257;-74
2023/04/26 16:04:20;;;;;;;3.60;2.13;;;12.30;55.40;;;;;;4920404;29;20182;-75
2023/04/26 16:06:47;;;;;;;4.30;2.45;;;12.20;54.80;;;;;;4919769;29;20206;-74
2023/04/26 16:09:18;;;;;;;5.53;2.20;;;12.00;55.40;;;;;;4919756;29;20622;-75
2023/04/26 16:11:43;;;;;;;4.75;2.22;;;11.90;55.70;;;;;;4919820;29;20305;-77
2023/04/26 16:14:09;;;;;;;3.58;2.08;;;11.80;54.70;;;;;;4937076;29;20194;-75
2023/04/26 16:16:39;;;;;;;3.15;2.33;;;11.80;53.90;;;;;;4920399;29;20201;-75
2023/04/26 16:19:04;;;;;;;7.05;2.22;;;11.70;54.60;;;;;;4936445;29;20174;-75
2023/04/26 16:21:38;;;;;;;5.80;2.50;;;11.60;55.70;;;;;;4956379;29;20166;-77
2023/04/26 16:24:11;;;;;;;3.92;2.30;;;11.60;56.90;;;;;;4940299;29;20185;-74
2023/04/26 16:26:38;;;;;;;4.70;2.30;;;11.50;55.10;;;;;;4939260;29;20208;-74
2023/04/26 16:29:08;;;;;;;3.85;2.22;;;11.50;55.40;;;;;;4950196;29;20293;-75
2023/04/26 16:31:36;;;;;;;3.17;2.08;;;11.50;56.30;;;;;;4926271;29;20205;-75
2023/04/26 16:34:02;;;;;;;7.45;2.00;;;11.40;54.30;;;;;;4939149;29;20619;-76
2023/04/26 16:36:27;;;;;;;4.97;2.28;;;11.40;55.90;;;;;;4951164;29;20193;-76
2023/04/26 16:38:55;;;;;;;7.68;2.42;;;11.30;55.70;;;;;;4921531;29;20261;-77
2023/04/26 16:41:22;;;;;;;4.50;2.33;;;11.20;56.10;;;;;;4919784;29;20178;-76
2023/04/26 16:43:52;;;;;;;6.53;2.40;;;11.10;56.90;;;;;;4926344;29;20303;-75
2023/04/26 16:46:18;;;;;;;6.53;2.53;;;11.10;56.70;;;;;;4937343;29;20235;-76
2023/04/26 16:48:44;;;;;;;6.25;2.33;;;11.00;55.70;;;;;;4932984;29;20188;-76
2023/04/26 16:51:10;;;;;;;6.55;2.30;;;10.90;56.60;;;;;;4942098;29;20686;-75
2023/04/26 16:53:36;;;;;;;4.95;2.30;;;10.90;58.10;;;;;;4938958;29;20198;-76
2023/04/26 16:56:02;;;;;;;7.00;2.47;;;10.80;59.20;;;;;;4938582;29;20679;-76
2023/04/26 16:58:28;;;;;;;5.57;2.40;;;10.80;58.70;;;;;;4938261;29;20175;-76
2023/04/26 17:00:53;;;;;;;4.32;2.30;;;10.70;58.60;;;;;;4939816;29;20222;-74
2023/04/26 17:03:19;;;;;;;5.20;2.53;;;10.60;58.60;;;;;;4939293;29;20170;-75
2023/04/26 17:05:45;;;;;;;5.82;2.50;;;10.50;58.90;;;;;;4938886;29;20209;-79
2023/04/26 17:08:15;;;;;;;7.15;2.50;;;10.40;59.70;;;;;;4939700;29;20213;-80
2023/04/26 17:10:41;;;;;;;6.22;2.42;;;10.40;60.30;;;;;;4938819;29;20178;-74
2023/04/26 17:13:07;;;;;;;12.57;2.90;;;10.40;58.60;;;;;;4938600;29;20186;-77
2023/04/26 17:15:34;;;;;;;7.18;2.45;;;10.30;59.00;;;;;;4938850;29;20174;-77
2023/04/26 17:18:00;;;;;;;5.32;2.47;;;10.20;59.60;;;;;;4941185;29;20179;-76
2023/04/26 17:20:30;;;;;;;6.22;2.58;;;10.10;62.00;;;;;;4940669;29;20185;-76
2023/04/26 17:22:57;;;;;;;5.50;2.55;;;10.00;61.30;;;;;;4939106;29;20213;-76
2023/04/26 17:25:23;;;;;;;9.90;3.00;;;9.80;61.30;;;;;;4922780;29;20569;-75
2023/04/26 17:27:49;;;;;;;27.27;3.58;;;9.70;62.50;;;;;;4938058;29;20289;-75
2023/04/26 17:30:15;;;;;;;34.22;3.78;;;9.70;63.80;;;;;;4922635;29;20190;-74
2023/04/26 17:32:40;;;;;;;12.10;2.65;;;9.50;64.40;;;;;;4938913;29;20221;-75
2023/04/26 17:35:06;;;;;;;10.10;2.83;;;9.50;64.20;;;;;;4940036;29;20174;-77
2023/04/26 17:37:32;;;;;;;15.35;3.00;;;9.40;65.20;;;;;;4938880;29;20226;-74
2023/04/26 17:40:04;;;;;;;8.02;2.35;;;9.30;64.20;;;;;;4938819;29;20183;-75
2023/04/26 17:42:33;;;;;;;19.02;3.55;;;9.20;65.20;;;;;;4938925;29;20158;-74
2023/04/26 17:45:04;;;;;;;14.40;3.28;;;9.20;66.10;;;;;;4945123;29;20218;-75
2023/04/26 17:47:32;;;;;;;11.98;2.80;;;9.10;67.40;;;;;;4929052;29;20209;-76
2023/04/26 17:49:58;;;;;;;6.70;2.83;;;8.90;68.00;;;;;;4927529;29;20186;-75
2023/04/26 17:52:24;;;;;;;8.43;2.80;;;8.90;68.30;;;;;;4927361;29;20212;-75
2023/04/26 17:54:49;;;;;;;7.50;2.85;;;8.80;68.60;;;;;;4929399;29;20178;-75
2023/04/26 17:57:16;;;;;;;9.93;3.10;;;8.70;69.70;;;;;;4929642;29;20285;-74
2023/04/26 17:59:42;;;;;;;19.38;3.35;;;8.70;71.30;;;;;;4926490;29;20166;-75
2023/04/26 18:02:08;;;;;;;14.13;3.90;;;8.60;73.10;;;;;;4929837;29;20650;-77
2023/04/26 18:04:34;;;;;;;12.50;3.47;;;8.60;74.30;;;;;;4931322;29;20187;-75
2023/04/26 18:07:00;;;;;;;13.48;2.80;;;8.50;73.80;;;;;;4928692;29;20198;-75
2023/04/26 18:09:25;;;;;;;8.82;3.38;;;8.50;73.10;;;;;;4937651;29;20359;-74
2023/04/26 18:11:51;;;;;;;6.53;2.90;;;8.40;73.20;;;;;;4920804;29;20310;-74
2023/04/26 18:14:16;;;;;;;8.15;3.22;;;8.40;73.50;;;;;;4938229;29;20237;-74
2023/04/26 18:16:42;;;;;;;8.98;3.47;;;8.40;73.60;;;;;;4920860;29;20329;-74
2023/04/26 18:19:08;;;;;;;13.55;3.20;;;8.40;73.40;;;;;;4921196;29;20329;-75
2023/04/26 18:21:34;;;;;;;7.68;2.88;;;8.40;73.90;;;;;;4921751;29;20635;-78
2023/04/26 18:24:00;;;;;;;5.75;2.78;;;8.40;72.10;;;;;;4938021;29;20175;-76
2023/04/26 18:26:26;;;;;;;7.05;3.15;;;8.40;72.90;;;;;;4921697;29;20208;-76
2023/04/26 18:28:52;;;;;;;6.72;3.08;;;8.30;72.30;;;;;;4922081;29;20177;-77
2023/04/26 18:31:19;;;;;;;9.50;3.05;;;8.20;72.00;;;;;;4921765;29;20233;-75
2023/04/26 18:33:47;;;;;;;5.82;2.80;;;8.20;72.50;;;;;;4923928;29;20182;-75
2023/04/26 18:36:13;;;;;;;6.43;2.85;;;8.10;71.60;;;;;;4921887;29;20194;-75
2023/04/26 18:38:38;;;;;;;5.88;2.97;;;8.00;72.80;;;;;;4923304;29;20192;-76
2023/04/26 18:41:05;;;;;;;8.07;2.92;;;8.00;72.40;;;;;;4922039;29;20178;-75
2023/04/26 18:43:31;;;;;;;3.70;2.50;;;8.00;73.70;;;;;;4938460;29;20245;-75
2023/04/26 18:45:57;;;;;;;3.55;2.80;;;8.00;72.50;;;;;;4937857;29;20233;-75
2023/04/26 18:48:23;;;;;;;7.53;2.92;;;7.90;72.70;;;;;;4921032;29;20210;-75
2023/04/26 18:50:52;;;;;;;8.23;2.92;;;7.90;74.10;;;;;;4937393;29;20182;-74
2023/04/26 18:53:18;;;;;;;6.45;2.72;;;7.80;75.30;;;;;;4937361;29;20182;-74